sensor_id;sensor_type;location;lat;lon;timestamp;pressure;altitude;pressure_sealevel;temperature;humidity
69173;BME280;56280;49.662;8.408;2023-04-28T00:01:14;100506.91;;;14.26;57.93
69173;BME280;56280;49.662;8.408;2023-04-28T00:03:40;100488.09;;;14.18;57.41
69173;BME280;56280;49.662;8.408;2023-04-28T00:06:05;100511.13;;;14.29;57.35
69173;BME280;56280;49.662;8.408;2023-04-28T00:08:30;100517.16;;;14.31;58.23
69173;BME280;56280;49.662;8.408;2023-04-28T00:10:56;100512.25;;;14.26;60.58
69173;BME280;56280;49.662;8.408;2023-04-28T00:13:21;100513.41;;;14.23;62.45
69173;BME280;56280;49.662;8.408;2023-04-28T00:15:48;100503.03;;;14.11;61.70
69173;BME280;56280;49.662;8.408;2023-04-28T00:18:14;100493.16;;;13.83;61.40
69173;BME280;56280;49.662;8.408;2023-04-28T00:20:39;100504.56;;;13.76;61.73
69173;BME280;56280;49.662;8.408;2023-04-28T00:23:04;100475.91;;;13.68;64.71
69173;BME280;56280;49.662;8.408;2023-04-28T00:25:30;100501.78;;;12.99;67.75
69173;BME280;56280;49.662;8.408;2023-04-28T00:27:55;100503.63;;;12.99;68.28
69173;BME280;56280;49.662;8.408;2023-04-28T00:30:20;100482.41;;;12.58;69.31
69173;BME280;56280;49.662;8.408;2023-04-28T00:32:46;100490.28;;;12.69;71.38
69173;BME280;56280;49.662;8.408;2023-04-28T00:35:11;100466.16;;;12.81;70.74
69173;BME280;56280;49.662;8.408;2023-04-28T00:37:37;100482.28;;;12.99;70.42
69173;BME280;56280;49.662;8.408;2023-04-28T00:40:03;100470.22;;;12.85;72.12
69173;BME280;56280;49.662;8.408;2023-04-28T00:42:29;100455.34;;;12.82;72.21
69173;BME280;56280;49.662;8.408;2023-04-28T00:44:54;100457.88;;;13.03;71.76
69173;BME280;56280;49.662;8.408;2023-04-28T00:47:19;100453.81;;;13.09;70.53
69173;BME280;56280;49.662;8.408;2023-04-28T00:49:45;100442.97;;;13.01;71.74
69173;BME280;56280;49.662;8.408;2023-04-28T00:52:11;100443.84;;;13.01;72.62
69173;BME280;56280;49.662;8.408;2023-04-28T00:54:37;100437.78;;;12.99;71.34
69173;BME280;56280;49.662;8.408;2023-04-28T00:57:02;100431.34;;;13.02;72.57
69173;BME280;56280;49.662;8.408;2023-04-28T00:59:28;100433.19;;;13.01;72.59
69173;BME280;56280;49.662;8.408;2023-04-28T01:01:54;100430.78;;;13.08;71.43
69173;BME280;56280;49.662;8.408;2023-04-28T01:04:20;100427.28;;;12.98;72.26
69173;BME280;56280;49.662;8.408;2023-04-28T01:06:48;100417.47;;;12.79;72.28
69173;BME280;56280;49.662;8.408;2023-04-28T01:09:13;100428.28;;;12.87;72.60
69173;BME280;56280;49.662;8.408;2023-04-28T01:11:38;100419.00;;;12.91;72.51
69173;BME280;56280;49.662;8.408;2023-04-28T01:14:04;100419.13;;;13.09;73.20
69173;BME280;56280;49.662;8.408;2023-04-28T01:16:30;100420.50;;;13.23;73.09
69173;BME280;56280;49.662;8.408;2023-04-28T01:18:57;100406.47;;;13.21;73.26
69173;BME280;56280;49.662;8.408;2023-04-28T01:21:31;100391.31;;;13.11;72.51
69173;BME280;56280;49.662;8.408;2023-04-28T01:23:58;100421.78;;;13.38;71.97
69173;BME280;56280;49.662;8.408;2023-04-28T01:26:24;100417.84;;;13.32;71.32
69173;BME280;56280;49.662;8.408;2023-04-28T01:28:49;100424.03;;;13.43;71.26
69173;BME280;56280;49.662;8.408;2023-04-28T01:31:15;100406.06;;;13.35;71.20
69173;BME280;56280;49.662;8.408;2023-04-28T01:33:40;100413.06;;;13.46;70.63
69173;BME280;56280;49.662;8.408;2023-04-28T01:36:06;100386.38;;;13.36;70.88
69173;BME280;56280;49.662;8.408;2023-04-28T01:38:31;100401.91;;;13.50;70.43
69173;BME280;56280;49.662;8.408;2023-04-28T01:40:56;100382.31;;;13.42;70.53
69173;BME280;56280;49.662;8.408;2023-04-28T01:43:22;100395.75;;;13.50;70.32
69173;BME280;56280;49.662;8.408;2023-04-28T01:45:48;100410.50;;;13.54;70.33
69173;BME280;56280;49.662;8.408;2023-04-28T01:48:13;100414.94;;;13.63;69.38
69173;BME280;56280;49.662;8.408;2023-04-28T01:50:38;100420.00;;;13.66;69.13
69173;BME280;56280;49.662;8.408;2023-04-28T01:53:03;100422.13;;;13.63;68.48
69173;BME280;56280;49.662;8.408;2023-04-28T01:55:29;100408.38;;;13.58;67.57
69173;BME280;56280;49.662;8.408;2023-04-28T01:57:54;100411.59;;;13.61;67.28
69173;BME280;56280;49.662;8.408;2023-04-28T02:00:22;100392.66;;;13.55;67.38
69173;BME280;56280;49.662;8.408;2023-04-28T02:02:47;100380.13;;;13.55;67.19
69173;BME280;56280;49.662;8.408;2023-04-28T02:05:12;100357.31;;;13.43;67.30
69173;BME280;56280;49.662;8.408;2023-04-28T02:07:37;100382.66;;;13.57;67.37
69173;BME280;56280;49.662;8.408;2023-04-28T02:10:03;100388.41;;;13.62;66.59
69173;BME280;56280;49.662;8.408;2023-04-28T02:12:28;100387.41;;;13.63;66.05
69173;BME280;56280;49.662;8.408;2023-04-28T02:14:54;100395.97;;;13.66;66.55
69173;BME280;56280;49.662;8.408;2023-04-28T02:17:19;100390.78;;;13.65;66.91
69173;BME280;56280;49.662;8.408;2023-04-28T02:19:44;100415.63;;;13.75;65.92
69173;BME280;56280;49.662;8.408;2023-04-28T02:22:09;100414.06;;;13.73;65.84
69173;BME280;56280;49.662;8.408;2023-04-28T02:24:35;100407.22;;;13.70;66.38
69173;BME280;56280;49.662;8.408;2023-04-28T02:27:01;100413.53;;;13.69;66.78
69173;BME280;56280;49.662;8.408;2023-04-28T02:29:27;100402.06;;;13.59;66.87
69173;BME280;56280;49.662;8.408;2023-04-28T02:31:54;100419.84;;;13.68;67.56
69173;BME280;56280;49.662;8.408;2023-04-28T02:34:19;100404.84;;;13.67;68.32
69173;BME280;56280;49.662;8.408;2023-04-28T02:36:45;100400.06;;;13.61;68.82
69173;BME280;56280;49.662;8.408;2023-04-28T02:39:10;100409.31;;;13.66;68.72
69173;BME280;56280;49.662;8.408;2023-04-28T02:41:36;100414.44;;;13.50;68.80
69173;BME280;56280;49.662;8.408;2023-04-28T02:44:01;100415.41;;;13.49;68.15
69173;BME280;56280;49.662;8.408;2023-04-28T02:46:26;100397.75;;;13.38;67.97
69173;BME280;56280;49.662;8.408;2023-04-28T02:48:51;100389.50;;;13.22;67.49
69173;BME280;56280;49.662;8.408;2023-04-28T02:51:17;100397.91;;;13.27;70.53
69173;BME280;56280;49.662;8.408;2023-04-28T02:53:43;100376.16;;;13.22;71.33
69173;BME280;56280;49.662;8.408;2023-04-28T02:56:08;100381.75;;;13.28;69.59
69173;BME280;56280;49.662;8.408;2023-04-28T02:58:33;100382.88;;;13.36;71.29
69173;BME280;56280;49.662;8.408;2023-04-28T03:00:58;100377.09;;;13.40;70.79
69173;BME280;56280;49.662;8.408;2023-04-28T03:03:24;100370.06;;;13.29;70.81
69173;BME280;56280;49.662;8.408;2023-04-28T03:05:49;100381.91;;;13.37;72.74
69173;BME280;56280;49.662;8.408;2023-04-28T03:08:15;100378.22;;;13.28;73.95
69173;BME280;56280;49.662;8.408;2023-04-28T03:10:40;100381.75;;;13.28;74.52
69173;BME280;56280;49.662;8.408;2023-04-28T03:13:05;100361.41;;;13.18;74.46
69173;BME280;56280;49.662;8.408;2023-04-28T03:15:31;100372.78;;;13.20;75.03
69173;BME280;56280;49.662;8.408;2023-04-28T03:17:57;100371.25;;;13.17;74.96
69173;BME280;56280;49.662;8.408;2023-04-28T03:20:22;100359.47;;;13.10;71.11
69173;BME280;56280;49.662;8.408;2023-04-28T03:22:47;100352.34;;;12.91;68.39
69173;BME280;56280;49.662;8.408;2023-04-28T03:25:12;100353.06;;;12.83;68.57
69173;BME280;56280;49.662;8.408;2023-04-28T03:27:38;100344.09;;;12.74;73.38
69173;BME280;56280;49.662;8.408;2023-04-28T03:30:04;100323.19;;;12.70;75.77
69173;BME280;56280;49.662;8.408;2023-04-28T03:32:29;100330.75;;;12.74;75.49
69173;BME280;56280;49.662;8.408;2023-04-28T03:34:54;100345.47;;;12.88;76.77
69173;BME280;56280;49.662;8.408;2023-04-28T03:37:20;100343.25;;;12.74;77.91
69173;BME280;56280;49.662;8.408;2023-04-28T03:39:45;100326.84;;;12.69;78.19
69173;BME280;56280;49.662;8.408;2023-04-28T03:42:10;100340.75;;;12.63;78.37
69173;BME280;56280;49.662;8.408;2023-04-28T03:44:36;100331.75;;;12.64;77.88
69173;BME280;56280;49.662;8.408;2023-04-28T03:47:01;100339.03;;;12.71;78.38
69173;BME280;56280;49.662;8.408;2023-04-28T03:49:26;100332.16;;;12.88;77.38
69173;BME280;56280;49.662;8.408;2023-04-28T03:51:51;100315.16;;;12.80;76.61
69173;BME280;56280;49.662;8.408;2023-04-28T03:54:17;100335.91;;;12.95;77.15
69173;BME280;56280;49.662;8.408;2023-04-28T03:56:43;100334.78;;;12.98;77.34
69173;BME280;56280;49.662;8.408;2023-04-28T03:59:08;100340.53;;;13.03;77.18
69173;BME280;56280;49.662;8.408;2023-04-28T04:01:35;100339.88;;;12.82;76.75
69173;BME280;56280;49.662;8.408;2023-04-28T04:04:01;100334.69;;;12.51;76.70
69173;BME280;56280;49.662;8.408;2023-04-28T04:06:26;100340.03;;;12.51;77.31
69173;BME280;56280;49.662;8.408;2023-04-28T04:08:51;100331.31;;;12.68;76.96
69173;BME280;56280;49.662;8.408;2023-04-28T04:11:17;100326.81;;;12.88;76.35
69173;BME280;56280;49.662;8.408;2023-04-28T04:13:42;100323.28;;;12.88;75.96
69173;BME280;56280;49.662;8.408;2023-04-28T04:16:07;100326.97;;;12.87;75.19
69173;BME280;56280;49.662;8.408;2023-04-28T04:18:32;100327.22;;;12.93;76.61
69173;BME280;56280;49.662;8.408;2023-04-28T04:20:58;100326.47;;;13.11;76.81
69173;BME280;56280;49.662;8.408;2023-04-28T04:23:23;100315.13;;;13.09;77.04
69173;BME280;56280;49.662;8.408;2023-04-28T04:25:48;100338.97;;;13.20;77.28
69173;BME280;56280;49.662;8.408;2023-04-28T04:28:14;100323.34;;;13.25;76.87
69173;BME280;56280;49.662;8.408;2023-04-28T04:30:40;100308.59;;;13.21;76.52
69173;BME280;56280;49.662;8.408;2023-04-28T04:33:05;100307.34;;;13.25;77.33
69173;BME280;56280;49.662;8.408;2023-04-28T04:35:31;100306.38;;;13.17;76.68
69173;BME280;56280;49.662;8.408;2023-04-28T04:37:56;100321.19;;;12.91;77.06
69173;BME280;56280;49.662;8.408;2023-04-28T04:40:22;100311.91;;;12.95;78.61
69173;BME280;56280;49.662;8.408;2023-04-28T04:42:47;100308.56;;;12.93;78.92
69173;BME280;56280;49.662;8.408;2023-04-28T04:45:12;100297.19;;;13.01;78.96
69173;BME280;56280;49.662;8.408;2023-04-28T04:47:39;100297.69;;;13.14;79.51
69173;BME280;56280;49.662;8.408;2023-04-28T04:50:05;100301.03;;;13.17;79.30
69173;BME280;56280;49.662;8.408;2023-04-28T04:52:30;100299.53;;;13.14;79.29
69173;BME280;56280;49.662;8.408;2023-04-28T04:54:55;100290.94;;;13.10;80.14
69173;BME280;56280;49.662;8.408;2023-04-28T04:57:21;100304.97;;;13.22;80.32
69173;BME280;56280;49.662;8.408;2023-04-28T04:59:46;100302.72;;;13.18;80.21
69173;BME280;56280;49.662;8.408;2023-04-28T05:02:12;100291.66;;;13.12;80.75
69173;BME280;56280;49.662;8.408;2023-04-28T05:04:37;100303.56;;;13.18;81.79
69173;BME280;56280;49.662;8.408;2023-04-28T05:07:02;100294.84;;;13.26;81.94
69173;BME280;56280;49.662;8.408;2023-04-28T05:09:28;100255.22;;;12.93;81.81
69173;BME280;56280;49.662;8.408;2023-04-28T05:11:54;100290.13;;;13.10;81.47
69173;BME280;56280;49.662;8.408;2023-04-28T05:14:20;100305.66;;;13.24;82.07
69173;BME280;56280;49.662;8.408;2023-04-28T05:16:45;100300.94;;;13.08;81.76
69173;BME280;56280;49.662;8.408;2023-04-28T05:19:10;100306.97;;;13.01;82.62
69173;BME280;56280;49.662;8.408;2023-04-28T05:21:36;100291.31;;;12.98;83.10
69173;BME280;56280;49.662;8.408;2023-04-28T05:24:01;100305.56;;;13.06;83.79
69173;BME280;56280;49.662;8.408;2023-04-28T05:26:26;100305.09;;;13.21;84.19
69173;BME280;56280;49.662;8.408;2023-04-28T05:28:51;100308.31;;;13.24;83.39
69173;BME280;56280;49.662;8.408;2023-04-28T05:31:17;100309.56;;;13.30;84.10
69173;BME280;56280;49.662;8.408;2023-04-28T05:33:42;100317.88;;;13.37;84.21
69173;BME280;56280;49.662;8.408;2023-04-28T05:36:08;100295.66;;;13.36;84.05
69173;BME280;56280;49.662;8.408;2023-04-28T05:38:33;100296.38;;;13.38;83.88
69173;BME280;56280;49.662;8.408;2023-04-28T05:41:00;100312.53;;;13.27;83.67
69173;BME280;56280;49.662;8.408;2023-04-28T05:43:25;100295.63;;;12.99;84.97
69173;BME280;56280;49.662;8.408;2023-04-28T05:45:51;100309.78;;;13.09;86.43
69173;BME280;56280;49.662;8.408;2023-04-28T05:48:16;100297.56;;;13.06;87.87
69173;BME280;56280;49.662;8.408;2023-04-28T05:50:41;100323.97;;;13.09;88.70
69173;BME280;56280;49.662;8.408;2023-04-28T05:53:06;100333.06;;;13.17;90.21
69173;BME280;56280;49.662;8.408;2023-04-28T05:55:32;100336.44;;;13.19;91.15
69173;BME280;56280;49.662;8.408;2023-04-28T05:57:58;100325.03;;;13.17;90.67
69173;BME280;56280;49.662;8.408;2023-04-28T06:00:24;100344.44;;;13.19;90.90
69173;BME280;56280;49.662;8.408;2023-04-28T06:02:49;100347.25;;;13.17;92.06
69173;BME280;56280;49.662;8.408;2023-04-28T06:05:15;100333.38;;;13.04;92.36
69173;BME280;56280;49.662;8.408;2023-04-28T06:07:40;100344.91;;;13.04;93.91
69173;BME280;56280;49.662;8.408;2023-04-28T06:10:06;100353.88;;;13.03;93.63
69173;BME280;56280;49.662;8.408;2023-04-28T06:12:31;100341.38;;;12.94;94.27
69173;BME280;56280;49.662;8.408;2023-04-28T06:14:56;100338.31;;;12.89;93.97
69173;BME280;56280;49.662;8.408;2023-04-28T06:17:22;100337.19;;;12.91;93.85
69173;BME280;56280;49.662;8.408;2023-04-28T06:19:48;100339.03;;;12.81;93.49
69173;BME280;56280;49.662;8.408;2023-04-28T06:22:15;100334.38;;;12.73;93.36
69173;BME280;56280;49.662;8.408;2023-04-28T06:24:40;100296.41;;;12.52;93.62
69173;BME280;56280;49.662;8.408;2023-04-28T06:27:06;100330.63;;;12.66;93.29
69173;BME280;56280;49.662;8.408;2023-04-28T06:29:32;100332.72;;;12.72;93.97
69173;BME280;56280;49.662;8.408;2023-04-28T06:31:57;100328.94;;;12.65;92.86
69173;BME280;56280;49.662;8.408;2023-04-28T06:34:25;100344.66;;;12.68;92.01
69173;BME280;56280;49.662;8.408;2023-04-28T06:36:53;100330.78;;;12.65;92.86
69173;BME280;56280;49.662;8.408;2023-04-28T06:39:19;100338.63;;;12.76;92.83
69173;BME280;56280;49.662;8.408;2023-04-28T06:41:44;100345.38;;;12.70;92.57
69173;BME280;56280;49.662;8.408;2023-04-28T06:44:09;100341.16;;;12.68;92.94
69173;BME280;56280;49.662;8.408;2023-04-28T06:46:35;100356.16;;;12.79;93.05
69173;BME280;56280;49.662;8.408;2023-04-28T06:49:01;100351.94;;;12.86;93.10
69173;BME280;56280;49.662;8.408;2023-04-28T06:51:26;100328.34;;;12.81;92.86
69173;BME280;56280;49.662;8.408;2023-04-28T06:53:52;100346.03;;;12.92;93.49
69173;BME280;56280;49.662;8.408;2023-04-28T06:56:18;100342.38;;;12.93;92.57
69173;BME280;56280;49.662;8.408;2023-04-28T06:58:44;100328.50;;;12.80;92.42
69173;BME280;56280;49.662;8.408;2023-04-28T07:01:09;100340.69;;;12.92;93.31
69173;BME280;56280;49.662;8.408;2023-04-28T07:03:34;100327.53;;;12.81;94.31
69173;BME280;56280;49.662;8.408;2023-04-28T07:06:00;100347.16;;;12.89;94.23
69173;BME280;56280;49.662;8.408;2023-04-28T07:08:25;100342.66;;;12.90;94.72
69173;BME280;56280;49.662;8.408;2023-04-28T07:10:50;100320.78;;;12.67;94.57
69173;BME280;56280;49.662;8.408;2023-04-28T07:13:16;100317.44;;;12.74;94.46
69173;BME280;56280;49.662;8.408;2023-04-28T07:15:41;100326.28;;;12.85;95.99
69173;BME280;56280;49.662;8.408;2023-04-28T07:18:06;100324.69;;;12.92;96.66
69173;BME280;56280;49.662;8.408;2023-04-28T07:20:32;100321.63;;;12.87;97.72
69173;BME280;56280;49.662;8.408;2023-04-28T07:22:57;100325.09;;;12.97;97.48
69173;BME280;56280;49.662;8.408;2023-04-28T07:25:22;100326.41;;;12.93;97.10
69173;BME280;56280;49.662;8.408;2023-04-28T07:27:47;100313.06;;;12.93;96.40
69173;BME280;56280;49.662;8.408;2023-04-28T07:30:14;100324.34;;;13.14;96.37
69173;BME280;56280;49.662;8.408;2023-04-28T07:32:39;100329.13;;;13.21;96.45
69173;BME280;56280;49.662;8.408;2023-04-28T07:35:05;100320.41;;;13.28;96.73
69173;BME280;56280;49.662;8.408;2023-04-28T07:37:30;100336.66;;;13.45;96.68
69173;BME280;56280;49.662;8.408;2023-04-28T07:39:56;100326.13;;;13.43;95.96
69173;BME280;56280;49.662;8.408;2023-04-28T07:42:21;100312.47;;;13.46;96.02
69173;BME280;56280;49.662;8.408;2023-04-28T07:44:46;100307.47;;;13.61;95.89
69173;BME280;56280;49.662;8.408;2023-04-28T07:47:12;100307.72;;;13.68;96.11
69173;BME280;56280;49.662;8.408;2023-04-28T07:49:37;100323.72;;;13.96;95.98
69173;BME280;56280;49.662;8.408;2023-04-28T07:52:03;100290.00;;;13.95;96.13
69173;BME280;56280;49.662;8.408;2023-04-28T07:54:28;100308.72;;;14.31;96.06
69173;BME280;56280;49.662;8.408;2023-04-28T07:56:55;100312.16;;;14.41;95.61
69173;BME280;56280;49.662;8.408;2023-04-28T07:59:21;100317.94;;;14.54;95.70
69173;BME280;56280;49.662;8.408;2023-04-28T08:01:47;100314.69;;;14.61;94.94
69173;BME280;56280;49.662;8.408;2023-04-28T08:04:12;100320.09;;;14.69;94.54
69173;BME280;56280;49.662;8.408;2023-04-28T08:06:37;100299.38;;;14.71;94.39
69173;BME280;56280;49.662;8.408;2023-04-28T08:09:04;100307.72;;;14.68;93.84
69173;BME280;56280;49.662;8.408;2023-04-28T08:11:30;100301.22;;;14.70;93.67
69173;BME280;56280;49.662;8.408;2023-04-28T08:13:55;100328.03;;;14.79;93.82
69173;BME280;56280;49.662;8.408;2023-04-28T08:16:25;100312.13;;;14.77;93.75
69173;BME280;56280;49.662;8.408;2023-04-28T08:18:51;100319.28;;;14.94;93.61
69173;BME280;56280;49.662;8.408;2023-04-28T08:21:16;100312.91;;;14.95;93.80
69173;BME280;56280;49.662;8.408;2023-04-28T08:23:42;100308.44;;;14.96;92.83
69173;BME280;56280;49.662;8.408;2023-04-28T08:26:07;100311.66;;;15.08;92.36
69173;BME280;56280;49.662;8.408;2023-04-28T08:28:32;100303.81;;;14.80;92.14
69173;BME280;56280;49.662;8.408;2023-04-28T08:30:58;100309.16;;;14.80;92.21
69173;BME280;56280;49.662;8.408;2023-04-28T08:33:23;100316.88;;;14.83;93.24
69173;BME280;56280;49.662;8.408;2023-04-28T08:35:49;100313.25;;;14.92;92.19
69173;BME280;56280;49.662;8.408;2023-04-28T08:38:15;100314.13;;;15.01;92.12
69173;BME280;56280;49.662;8.408;2023-04-28T08:40:42;100330.75;;;15.13;91.92
69173;BME280;56280;49.662;8.408;2023-04-28T08:43:07;100323.47;;;15.23;92.14
69173;BME280;56280;49.662;8.408;2023-04-28T08:45:40;100322.63;;;15.23;92.20
69173;BME280;56280;49.662;8.408;2023-04-28T08:48:14;100322.63;;;15.57;92.53
69173;BME280;56280;49.662;8.408;2023-04-28T08:50:43;100327.59;;;15.78;92.12
69173;BME280;56280;49.662;8.408;2023-04-28T08:53:13;100331.31;;;15.94;91.61
69173;BME280;56280;49.662;8.408;2023-04-28T08:55:39;100312.88;;;15.82;90.81
69173;BME280;56280;49.662;8.408;2023-04-28T08:58:05;100324.34;;;16.09;91.54
69173;BME280;56280;49.662;8.408;2023-04-28T09:00:36;100332.72;;;16.31;91.04
69173;BME280;56280;49.662;8.408;2023-04-28T09:03:01;100325.88;;;16.53;90.37
69173;BME280;56280;49.662;8.408;2023-04-28T09:05:26;100325.56;;;16.64;90.14
69173;BME280;56280;49.662;8.408;2023-04-28T09:07:51;100324.72;;;16.88;89.41
69173;BME280;56280;49.662;8.408;2023-04-28T09:10:20;100344.66;;;17.10;89.73
69173;BME280;56280;49.662;8.408;2023-04-28T09:12:47;100334.25;;;17.16;87.32
69173;BME280;56280;49.662;8.408;2023-04-28T09:15:33;100338.28;;;17.20;88.15
69173;BME280;56280;49.662;8.408;2023-04-28T09:17:59;100347.97;;;17.29;88.22
69173;BME280;56280;49.662;8.408;2023-04-28T09:20:27;100330.50;;;17.41;87.94
69173;BME280;56280;49.662;8.408;2023-04-28T09:22:54;100325.56;;;17.53;87.89
69173;BME280;56280;49.662;8.408;2023-04-28T09:25:21;100313.22;;;17.44;84.43
69173;BME280;56280;49.662;8.408;2023-04-28T09:27:47;100321.44;;;17.42;85.71
69173;BME280;56280;49.662;8.408;2023-04-28T09:30:13;100312.34;;;17.43;86.00
69173;BME280;56280;49.662;8.408;2023-04-28T09:32:38;100320.38;;;17.60;85.96
69173;BME280;56280;49.662;8.408;2023-04-28T09:35:04;100319.38;;;17.53;84.90
69173;BME280;56280;49.662;8.408;2023-04-28T09:37:31;100302.84;;;17.33;84.43
69173;BME280;56280;49.662;8.408;2023-04-28T09:42:37;100306.28;;;16.93;85.12
69173;BME280;56280;49.662;8.408;2023-04-28T09:45:06;100329.84;;;17.31;86.10
69173;BME280;56280;49.662;8.408;2023-04-28T09:47:35;100324.44;;;17.47;85.63
69173;BME280;56280;49.662;8.408;2023-04-28T09:50:03;100324.75;;;17.53;85.43
69173;BME280;56280;49.662;8.408;2023-04-28T09:52:28;100323.06;;;17.52;84.26
69173;BME280;56280;49.662;8.408;2023-04-28T09:54:55;100312.34;;;17.43;83.90
69173;BME280;56280;49.662;8.408;2023-04-28T09:57:21;100321.97;;;17.69;84.67
69173;BME280;56280;49.662;8.408;2023-04-28T09:59:49;100311.97;;;17.63;84.99
69173;BME280;56280;49.662;8.408;2023-04-28T10:02:15;100329.66;;;17.80;85.51
69173;BME280;56280;49.662;8.408;2023-04-28T10:04:45;100315.91;;;17.75;84.32
69173;BME280;56280;49.662;8.408;2023-04-28T10:07:11;100297.28;;;17.74;83.66
69173;BME280;56280;49.662;8.408;2023-04-28T10:09:38;100310.13;;;17.86;83.02
69173;BME280;56280;49.662;8.408;2023-04-28T10:12:04;100306.63;;;17.86;83.19
69173;BME280;56280;49.662;8.408;2023-04-28T10:14:31;100326.25;;;17.86;82.54
69173;BME280;56280;49.662;8.408;2023-04-28T10:16:58;100324.59;;;17.94;82.27
69173;BME280;56280;49.662;8.408;2023-04-28T10:19:23;100317.25;;;17.79;81.88
69173;BME280;56280;49.662;8.408;2023-04-28T10:22:03;100320.13;;;18.09;82.56
69173;BME280;56280;49.662;8.408;2023-04-28T10:24:47;100319.47;;;18.07;81.39
69173;BME280;56280;49.662;8.408;2023-04-28T10:27:18;100306.47;;;17.88;82.35
69173;BME280;56280;49.662;8.408;2023-04-28T10:29:43;100314.53;;;17.88;82.03
69173;BME280;56280;49.662;8.408;2023-04-28T10:32:19;100324.53;;;18.02;83.17
69173;BME280;56280;49.662;8.408;2023-04-28T10:34:45;100308.25;;;18.03;83.04
69173;BME280;56280;49.662;8.408;2023-04-28T10:37:11;100314.03;;;17.92;82.79
69173;BME280;56280;49.662;8.408;2023-04-28T10:39:39;100312.16;;;17.93;82.55
69173;BME280;56280;49.662;8.408;2023-04-28T10:45:08;100304.44;;;18.21;82.66
69173;BME280;56280;49.662;8.408;2023-04-28T10:47:59;100304.13;;;18.39;82.88
69173;BME280;56280;49.662;8.408;2023-04-28T10:50:28;100282.72;;;18.46;81.07
69173;BME280;56280;49.662;8.408;2023-04-28T10:52:55;100281.94;;;18.37;80.39
69173;BME280;56280;49.662;8.408;2023-04-28T10:55:30;100306.94;;;18.22;80.76
69173;BME280;56280;49.662;8.408;2023-04-28T11:00:44;100279.91;;;18.16;80.38
69173;BME280;56280;49.662;8.408;2023-04-28T11:06:38;100279.78;;;18.09;80.12
69173;BME280;56280;49.662;8.408;2023-04-28T11:12:04;100298.31;;;18.04;79.74
69173;BME280;56280;49.662;8.408;2023-04-28T11:14:34;100304.75;;;17.95;80.75
69173;BME280;56280;49.662;8.408;2023-04-28T11:17:02;100308.47;;;17.94;81.31
69173;BME280;56280;49.662;8.408;2023-04-28T11:19:33;100293.50;;;17.60;82.14
69173;BME280;56280;49.662;8.408;2023-04-28T11:22:01;100296.97;;;17.37;83.25
69173;BME280;56280;49.662;8.408;2023-04-28T11:24:28;100306.34;;;17.33;84.83
69173;BME280;56280;49.662;8.408;2023-04-28T11:26:54;100295.09;;;17.38;85.88
69173;BME280;56280;49.662;8.408;2023-04-28T11:29:33;100300.50;;;17.29;86.96
69173;BME280;56280;49.662;8.408;2023-04-28T11:32:00;100293.44;;;17.28;88.17
69173;BME280;56280;49.662;8.408;2023-04-28T11:34:26;100289.97;;;17.20;89.92
69173;BME280;56280;49.662;8.408;2023-04-28T11:36:51;100307.56;;;17.14;90.05
69173;BME280;56280;49.662;8.408;2023-04-28T11:39:24;100314.44;;;17.25;91.97
69173;BME280;56280;49.662;8.408;2023-04-28T11:41:52;100320.56;;;17.42;91.62
69173;BME280;56280;49.662;8.408;2023-04-28T11:44:20;100316.19;;;17.49;91.82
69173;BME280;56280;49.662;8.408;2023-04-28T11:46:51;100302.84;;;17.33;91.33
69173;BME280;56280;49.662;8.408;2023-04-28T11:49:20;100306.28;;;17.49;91.26
69173;BME280;56280;49.662;8.408;2023-04-28T11:51:46;100311.53;;;17.43;91.00
69173;BME280;56280;49.662;8.408;2023-04-28T11:54:19;100297.22;;;17.50;90.79
69173;BME280;56280;49.662;8.408;2023-04-28T11:56:45;100301.22;;;17.63;89.82
69173;BME280;56280;49.662;8.408;2023-04-28T11:59:11;100307.16;;;17.81;90.23
69173;BME280;56280;49.662;8.408;2023-04-28T12:04:12;100311.91;;;17.71;89.66
69173;BME280;56280;49.662;8.408;2023-04-28T12:06:39;100299.56;;;17.54;90.38
69173;BME280;56280;49.662;8.408;2023-04-28T12:09:17;100307.25;;;17.65;89.60
69173;BME280;56280;49.662;8.408;2023-04-28T12:11:56;100300.81;;;17.35;89.63
69173;BME280;56280;49.662;8.408;2023-04-28T12:14:23;100312.50;;;17.50;90.63
69173;BME280;56280;49.662;8.408;2023-04-28T12:16:48;100320.66;;;17.65;90.29
69173;BME280;56280;49.662;8.408;2023-04-28T12:19:15;100312.31;;;17.60;90.32
69173;BME280;56280;49.662;8.408;2023-04-28T12:21:41;100320.53;;;17.58;89.78
69173;BME280;56280;49.662;8.408;2023-04-28T12:24:18;100304.91;;;17.62;90.63
69173;BME280;56280;49.662;8.408;2023-04-28T12:26:45;100313.06;;;17.37;90.40
69173;BME280;56280;49.662;8.408;2023-04-28T12:29:37;100316.78;;;17.28;90.98
69173;BME280;56280;49.662;8.408;2023-04-28T12:32:05;100319.13;;;17.31;91.30
69173;BME280;56280;49.662;8.408;2023-04-28T12:34:30;100303.50;;;17.35;91.44
69173;BME280;56280;49.662;8.408;2023-04-28T12:36:57;100323.34;;;17.65;91.77
69173;BME280;56280;49.662;8.408;2023-04-28T12:39:23;100313.78;;;17.62;91.61
69173;BME280;56280;49.662;8.408;2023-04-28T12:41:50;100327.53;;;17.67;91.57
69173;BME280;56280;49.662;8.408;2023-04-28T12:44:15;100320.66;;;17.65;91.45
69173;BME280;56280;49.662;8.408;2023-04-28T12:46:40;100305.72;;;17.62;91.97
69173;BME280;56280;49.662;8.408;2023-04-28T12:49:06;100297.06;;;17.52;92.09
69173;BME280;56280;49.662;8.408;2023-04-28T12:51:32;100292.81;;;17.58;92.14
69173;BME280;56280;49.662;8.408;2023-04-28T12:53:59;100281.38;;;17.64;92.69
69173;BME280;56280;49.662;8.408;2023-04-28T12:56:25;100306.16;;;17.82;92.57
69173;BME280;56280;49.662;8.408;2023-04-28T12:58:50;100266.59;;;17.68;91.94
69173;BME280;56280;49.662;8.408;2023-04-28T13:01:16;100316.84;;;17.99;91.52
69173;BME280;56280;49.662;8.408;2023-04-28T13:03:41;100314.09;;;18.07;91.97